sensor_id;sensor_type;location;lat;lon;timestamp;pressure;altitude;pressure_sealevel;temperature;humidity
23446;BME280;11895;48.738;9.320;2023-02-18T00:01:44;99721.59;;;14.34;100.00
23446;BME280;11895;48.738;9.320;2023-02-18T00:04:12;99718.50;;;14.23;100.00
23446;BME280;11895;48.738;9.320;2023-02-18T00:06:40;99713.69;;;14.49;100.00
23446;BME280;11895;48.738;9.320;2023-02-18T00:09:07;99703.81;;;14.67;100.00
23446;BME280;11895;48.738;9.320;2023-02-18T00:11:36;99706.66;;;14.63;100.00
23446;BME280;11895;48.738;9.320;2023-02-18T00:14:11;99715.63;;;14.45;100.00
23446;BME280;11895;48.738;9.320;2023-02-18T00:16:41;99706.50;;;14.29;100.00
23446;BME280;11895;48.738;9.320;2023-02-18T00:19:16;99715.53;;;14.48;100.00
23446;BME280;11895;48.738;9.320;2023-02-18T00:21:44;99721.75;;;14.50;100.00
23446;BME280;11895;48.738;9.320;2023-02-18T00:24:16;99715.53;;;14.48;100.00
23446;BME280;11895;48.738;9.320;2023-02-18T00:26:44;99723.09;;;14.21;100.00
23446;BME280;11895;48.738;9.320;2023-02-18T00:29:12;99705.41;;;14.33;100.00
23446;BME280;11895;48.738;9.320;2023-02-18T00:31:40;99709.50;;;14.23;100.00
23446;BME280;11895;48.738;9.320;2023-02-18T00:34:10;99704.44;;;14.34;100.00
23446;BME280;11895;48.738;9.320;2023-02-18T00:36:39;99706.16;;;14.36;100.00
23446;BME280;11895;48.738;9.320;2023-02-18T00:39:10;99697.63;;;14.44;100.00
23446;BME280;11895;48.738;9.320;2023-02-18T00:41:38;99701.59;;;14.75;100.00
23446;BME280;11895;48.738;9.320;2023-02-18T00:44:07;99705.78;;;14.63;100.00
23446;BME280;11895;48.738;9.320;2023-02-18T00:46:36;99700.69;;;14.74;100.00
23446;BME280;11895;48.738;9.320;2023-02-18T00:49:06;99698.38;;;14.67;100.00
23446;BME280;11895;48.738;9.320;2023-02-18T00:51:35;99691.00;;;14.51;100.00
23446;BME280;11895;48.738;9.320;2023-02-18T00:54:02;99684.91;;;14.46;100.00
23446;BME280;11895;48.738;9.320;2023-02-18T00:56:30;99668.75;;;14.43;100.00
23446;BME280;11895;48.738;9.320;2023-02-18T00:58:58;99686.38;;;14.53;100.00
23446;BME280;11895;48.738;9.320;2023-02-18T01:01:25;99684.75;;;14.49;100.00
23446;BME280;11895;48.738;9.320;2023-02-18T01:03:53;99683.50;;;14.75;100.00
23446;BME280;11895;48.738;9.320;2023-02-18T01:06:21;99689.34;;;14.85;100.00
23446;BME280;11895;48.738;9.320;2023-02-18T01:08:48;99687.06;;;14.76;100.00
23446;BME280;11895;48.738;9.320;2023-02-18T01:11:15;99693.47;;;14.92;100.00
23446;BME280;11895;48.738;9.320;2023-02-18T01:13:42;99686.22;;;14.75;100.00
23446;BME280;11895;48.738;9.320;2023-02-18T01:16:10;99681.94;;;14.70;100.00
23446;BME280;11895;48.738;9.320;2023-02-18T01:18:39;99683.78;;;14.50;100.00
23446;BME280;11895;48.738;9.320;2023-02-18T01:21:07;99677.13;;;14.57;100.00
23446;BME280;11895;48.738;9.320;2023-02-18T01:23:37;99676.78;;;14.65;100.00
23446;BME280;11895;48.738;9.320;2023-02-18T01:26:07;99671.09;;;14.70;100.00
23446;BME280;11895;48.738;9.320;2023-02-18T01:28:38;99670.38;;;14.47;100.00
23446;BME280;11895;48.738;9.320;2023-02-18T01:31:09;99663.03;;;14.30;100.00
23446;BME280;11895;48.738;9.320;2023-02-18T01:33:39;99673.31;;;14.24;100.00
23446;BME280;11895;48.738;9.320;2023-02-18T01:36:32;99670.53;;;14.63;100.00
23446;BME280;11895;48.738;9.320;2023-02-18T01:39:00;99667.38;;;14.72;100.00
23446;BME280;11895;48.738;9.320;2023-02-18T01:41:27;99659.38;;;14.69;100.00
23446;BME280;11895;48.738;9.320;2023-02-18T01:44:24;99665.19;;;14.43;100.00
23446;BME280;11895;48.738;9.320;2023-02-18T01:46:53;99671.41;;;14.26;100.00
23446;BME280;11895;48.738;9.320;2023-02-18T01:49:35;99673.53;;;14.76;100.00
23446;BME280;11895;48.738;9.320;2023-02-18T01:52:18;99669.34;;;14.69;100.00
23446;BME280;11895;48.738;9.320;2023-02-18T01:54:54;99670.03;;;14.91;100.00
23446;BME280;11895;48.738;9.320;2023-02-18T01:57:29;99666.09;;;14.79;100.00
23446;BME280;11895;48.738;9.320;2023-02-18T02:00:09;99667.72;;;14.64;100.00
23446;BME280;11895;48.738;9.320;2023-02-18T02:02:48;99666.59;;;14.51;100.00
23446;BME280;11895;48.738;9.320;2023-02-18T02:05:19;99664.66;;;14.72;100.00
23446;BME280;11895;48.738;9.320;2023-02-18T02:07:51;99664.94;;;14.85;100.00
23446;BME280;11895;48.738;9.320;2023-02-18T02:10:19;99652.00;;;14.90;100.00
23446;BME280;11895;48.738;9.320;2023-02-18T02:13:29;99645.34;;;14.42;100.00
23446;BME280;11895;48.738;9.320;2023-02-18T02:16:42;99639.19;;;14.57;100.00
23446;BME280;11895;48.738;9.320;2023-02-18T02:36:12;99641.09;;;14.18;100.00
23446;BME280;11895;48.738;9.320;2023-02-18T02:45:31;99636.38;;;14.40;100.00
23446;BME280;11895;48.738;9.320;2023-02-18T02:48:55;99635.25;;;14.27;100.00
23446;BME280;11895;48.738;9.320;2023-02-18T02:51:45;99629.00;;;14.06;100.00
23446;BME280;11895;48.738;9.320;2023-02-18T02:54:23;99629.81;;;14.27;100.00
23446;BME280;11895;48.738;9.320;2023-02-18T03:00:00;99620.31;;;14.18;100.00
23446;BME280;11895;48.738;9.320;2023-02-18T03:03:16;99616.03;;;14.50;100.00
23446;BME280;11895;48.738;9.320;2023-02-18T03:06:15;99622.78;;;14.60;100.00
23446;BME280;11895;48.738;9.320;2023-02-18T03:21:12;99632.44;;;14.09;100.00
23446;BME280;11895;48.738;9.320;2023-02-18T03:24:15;99627.16;;;14.25;100.00
23446;BME280;11895;48.738;9.320;2023-02-18T03:26:51;99614.88;;;14.37;100.00
23446;BME280;11895;48.738;9.320;2023-02-18T03:29:24;99621.59;;;14.28;100.00
23446;BME280;11895;48.738;9.320;2023-02-18T03:32:02;99612.09;;;14.20;100.00
23446;BME280;11895;48.738;9.320;2023-02-18T03:34:38;99608.28;;;13.86;100.00
23446;BME280;11895;48.738;9.320;2023-02-18T03:37:09;99598.03;;;14.11;100.00
23446;BME280;11895;48.738;9.320;2023-02-18T03:39:44;99605.06;;;14.15;100.00
23446;BME280;11895;48.738;9.320;2023-02-18T03:42:16;99600.69;;;14.13;100.00
23446;BME280;11895;48.738;9.320;2023-02-18T03:44:44;99589.00;;;14.30;100.00
23446;BME280;11895;48.738;9.320;2023-02-18T03:47:12;99590.47;;;14.37;100.00
23446;BME280;11895;48.738;9.320;2023-02-18T03:49:44;99592.59;;;14.49;100.00
23446;BME280;11895;48.738;9.320;2023-02-18T03:52:12;99589.31;;;14.24;100.00
23446;BME280;11895;48.738;9.320;2023-02-18T03:54:39;99591.03;;;14.07;100.00
23446;BME280;11895;48.738;9.320;2023-02-18T03:57:07;99597.09;;;14.12;100.00
23446;BME280;11895;48.738;9.320;2023-02-18T03:59:35;99600.38;;;14.00;100.00
23446;BME280;11895;48.738;9.320;2023-02-18T04:02:02;99604.06;;;13.99;100.00
23446;BME280;11895;48.738;9.320;2023-02-18T04:04:29;99613.94;;;14.00;100.00
23446;BME280;11895;48.738;9.320;2023-02-18T04:06:57;99615.19;;;13.93;100.00
23446;BME280;11895;48.738;9.320;2023-02-18T04:09:25;99607.53;;;13.82;100.00
23446;BME280;11895;48.738;9.320;2023-02-18T04:11:52;99608.56;;;13.61;100.00
23446;BME280;11895;48.738;9.320;2023-02-18T04:14:19;99610.03;;;13.68;100.00
23446;BME280;11895;48.738;9.320;2023-02-18T04:16:46;99608.88;;;13.74;100.00
23446;BME280;11895;48.738;9.320;2023-02-18T04:19:14;99604.16;;;13.58;100.00
23446;BME280;11895;48.738;9.320;2023-02-18T04:21:41;99607.09;;;13.54;100.00
23446;BME280;11895;48.738;9.320;2023-02-18T04:24:08;99606.97;;;13.36;100.00
23446;BME280;11895;48.738;9.320;2023-02-18T04:26:35;99604.03;;;13.61;100.00
23446;BME280;11895;48.738;9.320;2023-02-18T04:29:02;99600.78;;;13.53;100.00
23446;BME280;11895;48.738;9.320;2023-02-18T04:31:30;99591.31;;;13.63;100.00
23446;BME280;11895;48.738;9.320;2023-02-18T04:33:57;99589.41;;;13.66;100.00
23446;BME280;11895;48.738;9.320;2023-02-18T04:36:24;99596.19;;;13.55;100.00
23446;BME280;11895;48.738;9.320;2023-02-18T04:38:52;99590.53;;;13.41;100.00
23446;BME280;11895;48.738;9.320;2023-02-18T04:41:19;99593.63;;;13.52;100.00
23446;BME280;11895;48.738;9.320;2023-02-18T04:43:46;99599.72;;;13.17;100.00
23446;BME280;11895;48.738;9.320;2023-02-18T04:46:14;99592.53;;;12.95;100.00
23446;BME280;11895;48.738;9.320;2023-02-18T04:48:42;99599.47;;;13.02;100.00
23446;BME280;11895;48.738;9.320;2023-02-18T04:51:09;99598.91;;;13.15;100.00
23446;BME280;11895;48.738;9.320;2023-02-18T04:53:36;99606.50;;;13.06;100.00
23446;BME280;11895;48.738;9.320;2023-02-18T04:56:03;99601.59;;;13.15;100.00
23446;BME280;11895;48.738;9.320;2023-02-18T04:58:31;99599.56;;;12.58;100.00
23446;BME280;11895;48.738;9.320;2023-02-18T05:01:00;99610.00;;;12.88;100.00
23446;BME280;11895;48.738;9.320;2023-02-18T05:03:29;99607.03;;;12.94;100.00
23446;BME280;11895;48.738;9.320;2023-02-18T05:05:57;99611.63;;;12.72;100.00
23446;BME280;11895;48.738;9.320;2023-02-18T05:08:25;99614.19;;;12.95;100.00
23446;BME280;11895;48.738;9.320;2023-02-18T05:10:52;99612.91;;;12.83;100.00
23446;BME280;11895;48.738;9.320;2023-02-18T05:13:20;99614.22;;;13.16;100.00
23446;BME280;11895;48.738;9.320;2023-02-18T05:15:49;99603.94;;;13.24;100.00
23446;BME280;11895;48.738;9.320;2023-02-18T05:18:16;99604.13;;;12.99;100.00
23446;BME280;11895;48.738;9.320;2023-02-18T05:20:43;99600.53;;;12.78;100.00
23446;BME280;11895;48.738;9.320;2023-02-18T05:23:11;99614.56;;;12.66;100.00
23446;BME280;11895;48.738;9.320;2023-02-18T05:25:38;99609.31;;;12.83;100.00
23446;BME280;11895;48.738;9.320;2023-02-18T05:28:05;99598.09;;;12.92;100.00
23446;BME280;11895;48.738;9.320;2023-02-18T05:30:33;99596.47;;;13.08;100.00
23446;BME280;11895;48.738;9.320;2023-02-18T05:33:00;99592.53;;;12.75;100.00
23446;BME280;11895;48.738;9.320;2023-02-18T05:35:27;99592.41;;;12.78;100.00
23446;BME280;11895;48.738;9.320;2023-02-18T05:37:54;99594.25;;;12.55;100.00
23446;BME280;11895;48.738;9.320;2023-02-18T05:40:22;99591.25;;;12.41;100.00
23446;BME280;11895;48.738;9.320;2023-02-18T05:42:49;99594.25;;;12.55;100.00
23446;BME280;11895;48.738;9.320;2023-02-18T05:45:16;99586.84;;;12.81;100.00
23446;BME280;11895;48.738;9.320;2023-02-18T05:47:44;99592.06;;;12.65;100.00
23446;BME280;11895;48.738;9.320;2023-02-18T05:50:11;99600.44;;;12.37;100.00
23446;BME280;11895;48.738;9.320;2023-02-18T05:52:39;99590.16;;;12.25;100.00
23446;BME280;11895;48.738;9.320;2023-02-18T05:55:06;99596.78;;;12.60;100.00
23446;BME280;11895;48.738;9.320;2023-02-18T05:57:33;99594.41;;;12.52;100.00
23446;BME280;11895;48.738;9.320;2023-02-18T06:00:01;99595.41;;;12.92;100.00
23446;BME280;11895;48.738;9.320;2023-02-18T06:02:30;99592.31;;;13.01;100.00
23446;BME280;11895;48.738;9.320;2023-02-18T06:04:57;99591.00;;;12.90;100.00
23446;BME280;11895;48.738;9.320;2023-02-18T06:07:25;99578.97;;;13.17;100.00
23446;BME280;11895;48.738;9.320;2023-02-18T06:09:52;99584.94;;;13.25;100.00
23446;BME280;11895;48.738;9.320;2023-02-18T06:12:19;99583.34;;;13.20;100.00
23446;BME280;11895;48.738;9.320;2023-02-18T06:14:49;99578.97;;;13.37;100.00
23446;BME280;11895;48.738;9.320;2023-02-18T06:17:17;99581.16;;;13.48;100.00
23446;BME280;11895;48.738;9.320;2023-02-18T06:19:45;99583.81;;;13.50;100.00
23446;BME280;11895;48.738;9.320;2023-02-18T06:22:16;99573.25;;;13.25;100.00
23446;BME280;11895;48.738;9.320;2023-02-18T06:24:43;99581.81;;;12.51;100.00
23446;BME280;11895;48.738;9.320;2023-02-18T06:27:11;99591.19;;;12.85;100.00
23446;BME280;11895;48.738;9.320;2023-02-18T06:29:39;99595.88;;;13.02;100.00
23446;BME280;11895;48.738;9.320;2023-02-18T06:32:07;99583.56;;;13.15;100.00
23446;BME280;11895;48.738;9.320;2023-02-18T06:34:35;99591.94;;;13.29;100.00
23446;BME280;11895;48.738;9.320;2023-02-18T06:37:02;99592.84;;;13.30;100.00
23446;BME280;11895;48.738;9.320;2023-02-18T06:39:29;99595.00;;;13.42;100.00
23446;BME280;11895;48.738;9.320;2023-02-18T06:42:00;99593.91;;;13.46;100.00
23446;BME280;11895;48.738;9.320;2023-02-18T06:44:27;99588.38;;;13.49;100.00
23446;BME280;11895;48.738;9.320;2023-02-18T06:46:54;99586.03;;;13.20;100.00
23446;BME280;11895;48.738;9.320;2023-02-18T06:49:21;99587.81;;;13.21;100.00
23446;BME280;11895;48.738;9.320;2023-02-18T06:51:49;99594.84;;;12.84;100.00
23446;BME280;11895;48.738;9.320;2023-02-18T06:54:16;99590.50;;;12.59;100.00
23446;BME280;11895;48.738;9.320;2023-02-18T06:56:43;99591.34;;;12.82;100.00
23446;BME280;11895;48.738;9.320;2023-02-18T06:59:10;99597.56;;;13.04;100.00
23446;BME280;11895;48.738;9.320;2023-02-18T07:01:38;99595.06;;;13.00;100.00
23446;BME280;11895;48.738;9.320;2023-02-18T07:04:05;99597.94;;;12.95;100.00
23446;BME280;11895;48.738;9.320;2023-02-18T07:06:32;99594.56;;;12.90;100.00
23446;BME280;11895;48.738;9.320;2023-02-18T07:08:59;99598.34;;;12.86;100.00
23446;BME280;11895;48.738;9.320;2023-02-18T07:11:27;99589.97;;;12.72;100.00
23446;BME280;11895;48.738;9.320;2023-02-18T07:13:54;99592.88;;;12.67;100.00
23446;BME280;11895;48.738;9.320;2023-02-18T07:16:21;99588.75;;;12.79;100.00
23446;BME280;11895;48.738;9.320;2023-02-18T07:18:49;99596.66;;;12.63;100.00
23446;BME280;11895;48.738;9.320;2023-02-18T07:21:16;99591.56;;;12.55;100.00
23446;BME280;11895;48.738;9.320;2023-02-18T07:23:43;99588.38;;;12.88;100.00
23446;BME280;11895;48.738;9.320;2023-02-18T07:26:13;99592.22;;;12.82;100.00
23446;BME280;11895;48.738;9.320;2023-02-18T07:28:41;99592.09;;;12.43;100.00
23446;BME280;11895;48.738;9.320;2023-02-18T07:31:08;99595.78;;;12.63;100.00
23446;BME280;11895;48.738;9.320;2023-02-18T07:33:36;99590.50;;;12.59;100.00
23446;BME280;11895;48.738;9.320;2023-02-18T07:36:04;99591.28;;;12.61;100.00
23446;BME280;11895;48.738;9.320;2023-02-18T07:38:32;99589.44;;;12.84;100.00
23446;BME280;11895;48.738;9.320;2023-02-18T07:40:59;99591.06;;;12.88;100.00
23446;BME280;11895;48.738;9.320;2023-02-18T07:43:27;99584.66;;;13.31;100.00
23446;BME280;11895;48.738;9.320;2023-02-18T07:45:54;99578.16;;;12.74;100.00
23446;BME280;11895;48.738;9.320;2023-02-18T07:48:21;99571.97;;;12.71;100.00
23446;BME280;11895;48.738;9.320;2023-02-18T07:50:49;99570.09;;;12.73;100.00
23446;BME280;11895;48.738;9.320;2023-02-18T07:53:16;99564.69;;;13.13;100.00
23446;BME280;11895;48.738;9.320;2023-02-18T07:55:44;99560.69;;;13.43;100.00
23446;BME280;11895;48.738;9.320;2023-02-18T07:58:24;99563.34;;;12.83;100.00
23446;BME280;11895;48.738;9.320;2023-02-18T08:00:54;99559.81;;;13.42;100.00
23446;BME280;11895;48.738;9.320;2023-02-18T08:03:24;99553.38;;;13.45;100.00
23446;BME280;11895;48.738;9.320;2023-02-18T08:05:57;99558.13;;;13.58;100.00
23446;BME280;11895;48.738;9.320;2023-02-18T08:08:31;99554.13;;;13.86;100.00
23446;BME280;11895;48.738;9.320;2023-02-18T08:11:02;99552.94;;;14.10;100.00
23446;BME280;11895;48.738;9.320;2023-02-18T08:13:44;99549.06;;;14.52;100.00
23446;BME280;11895;48.738;9.320;2023-02-18T08:16:14;99557.59;;;14.79;100.00
23446;BME280;11895;48.738;9.320;2023-02-18T08:18:42;99557.72;;;14.42;100.00
23446;BME280;11895;48.738;9.320;2023-02-18T08:21:09;99548.38;;;14.11;100.00
23446;BME280;11895;48.738;9.320;2023-02-18T08:23:37;99559.19;;;14.49;100.00
23446;BME280;11895;48.738;9.320;2023-02-18T08:26:05;99560.16;;;14.29;100.00
23446;BME280;11895;48.738;9.320;2023-02-18T08:28:42;99564.16;;;14.75;100.00
23446;BME280;11895;48.738;9.320;2023-02-18T08:31:28;99563.34;;;14.73;100.00
23446;BME280;11895;48.738;9.320;2023-02-18T08:33:58;99560.63;;;14.56;100.00
23446;BME280;11895;48.738;9.320;2023-02-18T08:36:30;99559.59;;;14.58;100.00
23446;BME280;11895;48.738;9.320;2023-02-18T08:38:57;99560.47;;;14.59;100.00
23446;BME280;11895;48.738;9.320;2023-02-18T08:41:24;99552.16;;;14.79;100.00
23446;BME280;11895;48.738;9.320;2023-02-18T08:43:51;99553.69;;;15.02;100.00
23446;BME280;11895;48.738;9.320;2023-02-18T08:46:19;99552.91;;;14.83;100.00
23446;BME280;11895;48.738;9.320;2023-02-18T08:49:02;99543.66;;;14.87;100.00
23446;BME280;11895;48.738;9.320;2023-02-18T08:51:30;99543.66;;;14.87;100.00
23446;BME280;11895;48.738;9.320;2023-02-18T08:53:58;99540.28;;;14.82;100.00
23446;BME280;11895;48.738;9.320;2023-02-18T08:56:25;99546.91;;;15.11;100.00
23446;BME280;11895;48.738;9.320;2023-02-18T08:58:52;99542.59;;;15.40;100.00
23446;BME280;11895;48.738;9.320;2023-02-18T09:01:20;99545.50;;;14.86;100.00
23446;BME280;11895;48.738;9.320;2023-02-18T09:03:47;99539.16;;;15.03;100.00
23446;BME280;11895;48.738;9.320;2023-02-18T09:06:14;99539.66;;;14.59;100.00
23446;BME280;11895;48.738;9.320;2023-02-18T09:08:42;99544.38;;;14.90;100.00
23446;BME280;11895;48.738;9.320;2023-02-18T09:11:10;99543.63;;;15.37;100.00
23446;BME280;11895;48.738;9.320;2023-02-18T09:13:40;99531.16;;;15.17;100.00
23446;BME280;11895;48.738;9.320;2023-02-18T09:16:16;99539.00;;;15.06;100.00
23446;BME280;11895;48.738;9.320;2023-02-18T09:18:46;99534.84;;;15.16;100.00
23446;BME280;11895;48.738;9.320;2023-02-18T09:21:16;99534.53;;;15.05;100.00
23446;BME280;11895;48.738;9.320;2023-02-18T09:23:46;99530.84;;;15.24;100.00
23446;BME280;11895;48.738;9.320;2023-02-18T09:26:16;99526.31;;;15.40;100.00
23446;BME280;11895;48.738;9.320;2023-02-18T09:28:44;99521.22;;;15.34;100.00
23446;BME280;11895;48.738;9.320;2023-02-18T09:31:15;99519.50;;;15.33;100.00
23446;BME280;11895;48.738;9.320;2023-02-18T09:33:48;99529.66;;;15.45;100.00
23446;BME280;11895;48.738;9.320;2023-02-18T09:36:19;99524.56;;;15.39;100.00
23446;BME280;11895;48.738;9.320;2023-02-18T09:38:48;99505.56;;;15.72;100.00
23446;BME280;11895;48.738;9.320;2023-02-18T09:44:31;99502.53;;;16.40;100.00
23446;BME280;11895;48.738;9.320;2023-02-18T09:50:25;99494.81;;;16.32;100.00
23446;BME280;11895;48.738;9.320;2023-02-18T09:53:03;99499.56;;;16.13;100.00
23446;BME280;11895;48.738;9.320;2023-02-18T09:55:38;99495.56;;;15.88;100.00
23446;BME280;11895;48.738;9.320;2023-02-18T09:58:22;99491.53;;;15.96;100.00
23446;BME280;11895;48.738;9.320;2023-02-18T10:01:14;99490.97;;;15.57;100.00
23446;BME280;11895;48.738;9.320;2023-02-18T10:03:48;99493.63;;;15.90;100.00
23446;BME280;11895;48.738;9.320;2023-02-18T10:06:36;99502.22;;;15.83;100.00
23446;BME280;11895;48.738;9.320;2023-02-18T10:09:16;99511.69;;;15.91;100.00
23446;BME280;11895;48.738;9.320;2023-02-18T10:12:06;99498.00;;;15.93;100.00
23446;BME280;11895;48.738;9.320;2023-02-18T10:14:56;99505.38;;;16.07;100.00
23446;BME280;11895;48.738;9.320;2023-02-18T10:17:30;99497.81;;;15.80;100.00
23446;BME280;11895;48.738;9.320;2023-02-18T10:19:59;99494.59;;;16.05;100.00
23446;BME280;11895;48.738;9.320;2023-02-18T10:22:31;99488.69;;;16.13;100.00
23446;BME280;11895;48.738;9.320;2023-02-18T10:25:03;99500.13;;;16.34;100.00
23446;BME280;11895;48.738;9.320;2023-02-18T10:27:37;99490.34;;;16.31;100.00
23446;BME280;11895;48.738;9.320;2023-02-18T10:32:45;99501.31;;;16.30;100.00
23446;BME280;11895;48.738;9.320;2023-02-18T10:35:33;99505.97;;;16.74;100.00
23446;BME280;11895;48.738;9.320;2023-02-18T10:41:21;99520.09;;;16.64;100.00
23446;BME280;11895;48.738;9.320;2023-02-18T10:44:32;99500.94;;;16.36;100.00
23446;BME280;11895;48.738;9.320;2023-02-18T10:50:39;99490.63;;;17.01;100.00
23446;BME280;11895;48.738;9.320;2023-02-18T10:55:50;99501.34;;;17.04;100.00
23446;BME280;11895;48.738;9.320;2023-02-18T10:58:33;99505.97;;;16.58;100.00
23446;BME280;11895;48.738;9.320;2023-02-18T11:01:19;99512.41;;;16.41;100.00
23446;BME280;11895;48.738;9.320;2023-02-18T11:04:04;99494.84;;;16.47;100.00
23446;BME280;11895;48.738;9.320;2023-02-18T11:06:52;99483.31;;;16.73;100.00
23446;BME280;11895;48.738;9.320;2023-02-18T11:09:38;99488.72;;;17.03;100.00
23446;BME280;11895;48.738;9.320;2023-02-18T11:12:21;99479.28;;;17.23;99.11
23446;BME280;11895;48.738;9.320;2023-02-18T11:17:47;99468.50;;;17.07;99.59
23446;BME280;11895;48.738;9.320;2023-02-18T11:20:31;99464.22;;;17.03;98.95
23446;BME280;11895;48.738;9.320;2023-02-18T11:25:36;99446.63;;;17.37;96.94
23446;BME280;11895;48.738;9.320;2023-02-18T11:30:42;99446.50;;;16.96;99.67
23446;BME280;11895;48.738;9.320;2023-02-18T11:33:38;99458.56;;;17.06;98.84
23446;BME280;11895;48.738;9.320;2023-02-18T11:36:18;99442.16;;;16.93;100.00
23446;BME280;11895;48.738;9.320;2023-02-18T11:39:02;99434.03;;;16.63;100.00
23446;BME280;11895;48.738;9.320;2023-02-18T11:41:40;99445.94;;;17.05;97.11
23446;BME280;11895;48.738;9.320;2023-02-18T11:47:20;99472.94;;;16.80;98.99
23446;BME280;11895;48.738;9.320;2023-02-18T11:52:42;99429.00;;;16.86;98.30
23446;BME280;11895;48.738;9.320;2023-02-18T11:55:24;99412.19;;;17.36;94.50
23446;BME280;11895;48.738;9.320;2023-02-18T11:58:13;99416.25;;;17.43;94.00
23446;BME280;11895;48.738;9.320;2023-02-18T12:00:56;99416.41;;;17.55;91.44
23446;BME280;11895;48.738;9.320;2023-02-18T12:04:10;99408.88;;;17.72;90.90
23446;BME280;11895;48.738;9.320;2023-02-18T12:10:49;99415.59;;;18.08;87.24
23446;BME280;11895;48.738;9.320;2023-02-18T12:13:37;99409.69;;;18.02;84.25
23446;BME280;11895;48.738;9.320;2023-02-18T12:24:00;99399.09;;;17.97;94.35
23446;BME280;11895;48.738;9.320;2023-02-18T12:27:04;99408.13;;;18.24;80.35
23446;BME280;11895;48.738;9.320;2023-02-18T12:33:43;99385.34;;;18.26;78.12
23446;BME280;11895;48.738;9.320;2023-02-18T12:37:05;99358.22;;;17.29;85.90
23446;BME280;11895;48.738;9.320;2023-02-18T12:44:19;99375.84;;;17.50;83.17
23446;BME280;11895;48.738;9.320;2023-02-18T12:47:46;99380.97;;;17.69;82.37
23446;BME280;11895;48.738;9.320;2023-02-18T13:01:29;99373.75;;;18.22;70.21
23446;BME280;11895;48.738;9.320;2023-02-18T13:05:03;99372.59;;;17.72;72.55
23446;BME280;11895;48.738;9.320;2023-02-18T13:17:56;99368.50;;;18.06;68.36
23446;BME280;11895;48.738;9.320;2023-02-18T13:20:55;99366.00;;;18.16;71.21
23446;BME280;11895;48.738;9.320;2023-02-18T13:30:42;99356.59;;;17.53;72.07
23446;BME280;11895;48.738;9.320;2023-02-18T13:37:54;99354.63;;;17.28;74.38
23446;BME280;11895;48.738;9.320;2023-02-18T13:40:47;99353.63;;;17.43;72.95
23446;BME280;11895;48.738;9.320;2023-02-18T13:43:35;99348.97;;;17.45;72.78
23446;BME280;11895;48.738;9.320;2023-02-18T13:49:49;99348.84;;;18.01;66.94
23446;BME280;11895;48.738;9.320;2023-02-18T13:52:19;99346.91;;;18.16;66.30
23446;BME280;11895;48.738;9.320;2023-02-18T14:22:44;99326.03;;;21.28;50.06
23446;BME280;11895;48.738;9.320;2023-02-18T14:25:48;99326.84;;;21.62;47.34
23446;BME280;11895;48.738;9.320;2023-02-18T14:32:00;99302.88;;;21.10;48.55
23446;BME280;11895;48.738;9.320;2023-02-18T14:38:41;99328.09;;;20.11;51.64
23446;BME280;11895;48.738;9.320;2023-02-18T15:02:23;99321.88;;;18.74;59.44
23446;BME280;11895;48.738;9.320;2023-02-18T15:08:38;99312.06;;;18.72;62.04
23446;BME280;11895;48.738;9.320;2023-02-18T15:30:12;99302.91;;;17.55;72.01
23446;BME280;11895;48.738;9.320;2023-02-18T15:33:10;99313.06;;;17.39;75.85
23446;BME280;11895;48.738;9.320;2023-02-18T15:35:41;99330.16;;;17.55;74.34
23446;BME280;11895;48.738;9.320;2023-02-18T15:38:18;99317.63;;;17.38;75.92
23446;BME280;11895;48.738;9.320;2023-02-18T15:40:51;99310.47;;;17.37;76.42
23446;BME280;11895;48.738;9.320;2023-02-18T15:43:24;99307.84;;;17.36;78.05
23446;BME280;11895;48.738;9.320;2023-02-18T15:45:57;99311.97;;;17.14;79.80
23446;BME280;11895;48.738;9.320;2023-02-18T15:48:44;99307.84;;;17.36;79.45
23446;BME280;11895;48.738;9.320;2023-02-18T15:51:19;99314.72;;;16.86;82.85
23446;BME280;11895;48.738;9.320;2023-02-18T15:53:53;99307.41;;;17.01;84.09
23446;BME280;11895;48.738;9.320;2023-02-18T15:56:36;99310.03;;;17.16;81.72
23446;BME280;11895;48.738;9.320;2023-02-18T15:59:20;99305.75;;;17.12;82.22
23446;BME280;11895;48.738;9.320;2023-02-18T16:02:07;99295.66;;;17.00;84.43
23446;BME280;11895;48.738;9.320;2023-02-18T16:08:26;99297.41;;;16.58;91.51
23446;BME280;11895;48.738;9.320;2023-02-18T16:11:11;99290.63;;;16.51;93.29
23446;BME280;11895;48.738;9.320;2023-02-18T16:13:47;99293.91;;;16.28;95.94
23446;BME280;11895;48.738;9.320;2023-02-18T16:16:36;99296.53;;;16.43;95.71
23446;BME280;11895;48.738;9.320;2023-02-18T16:29:23;99292.94;;;16.57;95.35
23446;BME280;11895;48.738;9.320;2023-02-18T16:39:36;99296.91;;;16.23;98.61
23446;BME280;11895;48.738;9.320;2023-02-18T16:42:14;99294.47;;;16.18;98.34
23446;BME280;11895;48.738;9.320;2023-02-18T16:48:54;99278.16;;;16.04;100.00
23446;BME280;11895;48.738;9.320;2023-02-18T16:55:20;99293.22;;;15.80;100.00
23446;BME280;11895;48.738;9.320;2023-02-18T17:01:40;99286.47;;;15.87;100.00
23446;BME280;11895;48.738;9.320;2023-02-18T17:04:17;99286.78;;;15.97;100.00
23446;BME280;11895;48.738;9.320;2023-02-18T17:06:49;99293.00;;;15.68;100.00
23446;BME280;11895;48.738;9.320;2023-02-18T17:09:20;99289.75;;;15.62;100.00
23446;BME280;11895;48.738;9.320;2023-02-18T17:11:54;99283.00;;;16.13;100.00
23446;BME280;11895;48.738;9.320;2023-02-18T17:14:22;99294.28;;;16.07;99.99
23446;BME280;11895;48.738;9.320;2023-02-18T17:16:53;99285.53;;;16.02;100.00
23446;BME280;11895;48.738;9.320;2023-02-18T17:19:20;99293.16;;;16.40;100.00
23446;BME280;11895;48.738;9.320;2023-02-18T17:21:48;99301.09;;;16.43;100.00
23446;BME280;11895;48.738;9.320;2023-02-18T17:24:17;99300.81;;;16.33;100.00
23446;BME280;11895;48.738;9.320;2023-02-18T17:26:49;99310.78;;;16.18;100.00
23446;BME280;11895;48.738;9.320;2023-02-18T17:29:17;99309.38;;;16.41;98.82